Latest Weather Observations for Norah Head

IDN60801

Issued at 4:34 pm EDT Saturday 20 December 2014 (issued every 30 minutes, with the page automatically refreshed every 10 minutes)

About weather observations | Map of weather stations | Latest weather observations for NSW | Other Formats
Station Details ID: 061366 Name: NORAH HEAD AWS Lat: -33.28 Lon: 151.58 Height: 18.8 m
Data from the previous 72 hours. | See also: Recent months at Norah Head
Date/Time
EDT
Temp
°C
App
Temp
°C
Dew
Point
Rel
Hum
%
Delta-T
°C
Wind Press
QNH
hPa
Press
MSL
hPa
Rain
since 9 am
mm
Dir
 
Spd
km/h
Gust
km/h
Spd
kts
Gust
kts
20/04:30pm 22.2 19.5 13.0 56 5.3 E 19 22 10 12 1016.3 1016.2 0.0
20/04:00pm 22.3 19.6 12.8 55 5.4 E 19 22 10 12 1016.4 1016.3 0.0
20/03:30pm 22.6 20.1 13.4 56 5.3 E 19 20 10 11 1016.6 1016.5 0.0
20/03:00pm 22.8 20.3 12.4 52 5.9 E 17 20 9 11 1016.8 1016.7 0.0
20/02:30pm 22.9 20.5 12.8 53 5.8 ESE 17 20 9 11 1016.8 1016.7 0.0
20/02:00pm 23.1 21.0 12.4 51 6.1 E 15 17 8 9 1017.2 1017.1 0.0
20/01:30pm 23.2 21.5 12.5 51 6.1 ESE 13 17 7 9 1017.5 1017.4 0.0
20/01:00pm 23.1 21.4 12.4 51 6.1 ESE 13 17 7 9 1017.9 1017.8 0.0
20/12:30pm 23.3 21.7 12.9 52 6.0 SE 13 15 7 8 1018.2 1018.1 0.0
20/12:00pm 23.1 21.9 12.7 52 5.9 SE 11 15 6 8 1018.4 1018.3 0.0
20/11:30am 23.1 22.2 13.6 55 5.5 SSE 11 15 6 8 1018.5 1018.4 0.0
20/11:00am 22.7 21.0 12.6 53 5.8 SSE 13 17 7 9 1018.4 1018.3 0.0
20/10:30am 22.9 21.6 12.5 52 5.9 S 11 17 6 9 1018.5 1018.4 0.0
20/10:00am 23.2 21.4 13.4 54 5.7 S 15 19 8 10 1018.4 1018.3 0.0
20/09:30am 22.0 19.8 12.0 53 5.6 SSE 15 20 8 11 1018.4 1018.3 0.0
20/09:00am 22.2 20.2 12.7 55 5.4 S 15 19 8 10 1018.3 1018.2 0.0
20/08:30am 21.9 20.5 13.5 59 4.8 S 13 17 7 9 1018.2 1018.1 0.0
20/08:00am 21.6 20.1 13.2 59 4.8 SSE 13 15 7 8 1018.0 1017.9 0.0
20/07:30am 20.8 18.8 12.8 60 4.5 SSE 15 19 8 10 1017.8 1017.7 0.0
20/07:00am 20.1 17.7 12.8 63 4.1 SSE 17 20 9 11 1017.5 1017.4 0.0
20/06:30am 19.3 16.9 12.8 66 3.7 SSE 17 20 9 11 1017.4 1017.3 0.0
20/05:30am 18.7 16.3 12.7 68 3.4 SSE 17 22 9 12 1016.9 1016.8 0.0
20/05:00am 18.8 16.4 12.5 67 3.5 SSE 17 20 9 11 1016.9 1016.8 0.0
20/04:30am 18.6 15.6 12.1 66 3.6 SSE 19 22 10 12 1016.7 1016.6 0.0
20/04:00am 18.6 16.3 13.0 70 3.1 SSE 17 19 9 10 1016.6 1016.5 0.0
20/03:30am 18.6 15.9 13.0 70 3.2 SSE 19 22 10 12 1016.7 1016.6 0.0
20/03:00am 18.8 16.1 13.0 69 3.3 SSE 19 24 10 13 1016.7 1016.6 0.0
20/02:30am 18.9 16.3 13.1 69 3.3 SSE 19 24 10 13 1016.9 1016.8 0.0
20/02:00am 18.9 15.9 12.6 67 3.5 SSE 20 26 11 14 1017.1 1017.0 0.0
20/01:30am 19.1 15.7 12.4 65 3.7 SSE 22 24 12 13 1017.4 1017.3 0.0
20/01:00am 19.1 15.4 12.6 66 3.6 SSE 24 28 13 15 1017.7 1017.6 0.0
20/12:30am 19.3 15.7 13.0 67 3.6 SSE 24 28 13 15 1018.1 1018.0 0.0
20/12:00am 19.3 16.0 12.8 66 3.7 SSE 22 26 12 14 1018.3 1018.2 0.0
 
Date/Time
EDT
Temp
°C
App
Temp
°C
Dew
Point
Rel
Hum
%
Delta-T
°C
Wind Press
QNH
hPa
Press
MSL
hPa
Rain
since 9 am
mm
Dir
 
Spd
km/h
Gust
km/h
Spd
kts
Gust
kts
19/11:30pm 19.5 15.3 12.3 63 4.0 SSE 26 30 14 16 1018.3 1018.2 0.0
19/11:00pm 19.5 15.6 13.2 67 3.6 SSE 26 30 14 16 1018.4 1018.3 0.0
19/10:30pm 19.5 15.1 11.8 61 4.3 SSE 26 30 14 16 1018.2 1018.1 0.0
19/10:00pm 19.5 14.7 13.0 66 3.7 SSE 30 37 16 20 1017.8 1017.7 0.0
19/09:30pm 19.6 14.5 13.1 66 3.7 SSE 32 35 17 19 1017.3 1017.2 0.0
19/09:00pm 19.5 14.5 13.4 68 3.5 S 32 39 17 21 1017.1 1017.0 0.0
19/08:30pm 19.5 14.4 13.7 69 3.3 SSE 33 39 18 21 1016.6 1016.5 0.0
19/08:00pm 19.3 14.1 13.3 68 3.4 SSE 33 39 18 21 1016.1 1016.0 0.0
19/07:30pm 19.3 14.2 13.0 67 3.6 SSE 32 39 17 21 1015.5 1015.4 0.0
19/07:00pm 19.7 14.5 13.4 67 3.6 SSE 33 39 18 21 1014.9 1014.8 0.0
19/06:30pm 20.0 14.9 13.0 64 4.0 SSE 32 39 17 21 1014.2 1014.1 0.0
19/06:00pm 20.4 15.4 13.4 64 4.0 SSE 32 39 17 21 1013.7 1013.6 0.0
19/05:30pm 20.5 15.0 13.7 65 3.9 S 35 43 19 23 1013.1 1013.0 0.0
19/05:00pm 21.0 16.3 14.2 65 4.0 SSE 32 39 17 21 1013.0 1012.9 0.0
19/04:30pm 21.1 16.1 14.0 64 4.1 SSE 33 41 18 22 1012.7 1012.6 0.0
19/04:00pm 21.7 16.9 14.1 62 4.4 SSE 32 37 17 20 1012.9 1012.8 0.0
19/03:30pm 20.5 15.9 13.5 64 4.0 SSE 30 35 16 19 1012.9 1012.8 0.0
19/03:00pm 21.8 17.1 14.4 63 4.3 SSE 32 35 17 19 1012.8 1012.7 0.0
19/02:30pm 22.0 17.0 13.9 60 4.7 SSE 33 39 18 21 1012.7 1012.6 0.0
19/02:00pm 22.1 16.6 13.5 58 5.0 SSE 35 43 19 23 1012.9 1012.8 0.0
19/01:30pm 21.8 16.5 14.2 62 4.4 SSE 35 41 19 22 1013.1 1013.0 0.0
19/01:00pm 21.6 16.3 14.3 63 4.3 SSE 35 41 19 22 1012.9 1012.8 0.0
19/12:30pm 21.4 16.5 15.3 68 3.6 S 35 44 19 24 1013.3 1013.2 0.0
19/12:00pm 21.5 17.2 15.3 68 3.7 S 32 39 17 21 1013.4 1013.3 0.0
19/11:30am 21.3 16.2 14.9 67 3.8 S 35 41 19 22 1013.1 1013.0 0.0
19/11:00am 21.3 16.8 14.9 67 3.8 S 32 39 17 21 1013.2 1013.1 0.0
19/10:30am 20.8 16.6 14.7 68 3.6 S 30 39 16 21 1013.2 1013.1 0.0
19/10:00am 21.0 15.9 14.9 68 3.6 S 35 43 19 23 1012.8 1012.7 0.0
19/09:30am 20.4 15.2 14.5 69 3.4 S 35 44 19 24 1012.5 1012.4 0.0
19/09:00am 20.4 14.6 15.0 71 3.2 S 39 50 21 27 1012.1 1012.0 0.0
19/08:30am 19.7 13.7 15.4 76 2.5 S 41 52 22 28 1011.9 1011.8 0.0
19/08:00am 19.9 13.6 15.7 77 2.5 S 43 54 23 29 1011.2 1011.1 0.0
19/07:30am 19.8 13.6 15.9 78 2.3 S 43 57 23 31 1010.7 1010.6 0.0
19/07:21am 19.7 13.6 16.2 80 2.1 S 43 61 23 33 1010.5 1010.4 0.0
19/07:00am 19.6 12.6 16.4 82 1.9 S 48 63 26 34 1010.0 1009.9 0.0
19/06:30am 19.5 13.7 16.9 85 1.6 S 43 59 23 32 1009.5 1009.4 0.0
19/06:00am 19.4 13.4 17.0 86 1.5 S 44 59 24 32 1008.8 1008.8 0.0
19/05:31am 19.5 12.6 17.6 89 1.2 SSW 50 70 27 38 1008.2 1008.2 0.0
19/05:30am 19.5 12.6 17.5 88 1.2 SSW 50 67 27 36 1008.2 1008.2 0.0
19/05:12am 20.4 19.2 17.4 83 1.8 SW 20 56 11 30 1007.9 1007.9 0.0
19/05:00am 20.6 21.3 18.0 85 1.6 SW 11 19 6 10 1007.4 1007.4 0.0
19/04:30am 20.2 20.5 18.0 87 1.4 W 13 22 7 12 1006.9 1006.9 0.0
19/04:00am 20.4 21.4 18.7 90 1.1 W 11 17 6 9 1006.2 1006.2 0.0
19/03:30am 20.5 21.2 18.8 90 1.1 W 13 19 7 10 1005.8 1005.8 0.0
19/03:00am 20.5 21.8 19.2 92 0.8 WNW 11 17 6 9 1005.4 1005.4 0.0
19/02:30am 20.5 23.5 20.0 97 0.3 NW 4 7 2 4 1005.5 1005.5 0.0
19/02:00am 21.0 24.2 20.5 97 0.3 WNW 4 11 2 6 1005.2 1005.2 0.0
19/01:30am 20.3 23.4 19.6 96 0.4 NNW 2 6 1 3 1005.4 1005.4 0.0
19/01:00am 20.4 23.2 19.7 96 0.4 NW 4 7 2 4 1005.9 1005.9 0.0
19/12:30am 20.6 23.5 19.9 96 0.4 WNW 4 6 2 3 1006.2 1006.2 0.0
19/12:00am 20.7 23.3 20.0 96 0.4 NNW 6 7 3 4 1006.4 1006.4 0.0
 
Date/Time
EDT
Temp
°C
App
Temp
°C
Dew
Point
Rel
Hum
%
Delta-T
°C
Wind Press
QNH
hPa
Press
MSL
hPa
Rain
since 9 am
mm
Dir
 
Spd
km/h
Gust
km/h
Spd
kts
Gust
kts
18/11:30pm 21.0 24.4 20.2 95 0.5 NE 2 9 1 5 1006.4 1006.4 0.0
18/11:00pm 20.8 23.2 20.0 95 0.5 NNE 7 11 4 6 1006.4 1006.4 0.0
18/10:30pm 21.0 23.5 20.2 95 0.5 N 7 9 4 5 1006.6 1006.6 0.0
18/10:00pm 21.0 23.6 20.0 94 0.6 N 6 9 3 5 1006.2 1006.2 0.0
18/09:30pm 21.4 24.0 20.4 94 0.6 N 7 9 4 5 1005.9 1005.9 0.0
18/09:00pm 21.5 23.3 20.3 93 0.8 NE 11 15 6 8 1005.7 1005.7 0.0
18/08:30pm 21.8 22.5 20.4 92 0.9 NE 17 20 9 11 1005.3 1005.3 0.0
18/08:00pm 22.1 22.4 20.4 90 1.1 ENE 19 20 10 11 1005.2 1005.2 0.0
18/07:30pm 22.3 23.1 20.6 90 1.1 ENE 17 19 9 10 1004.9 1004.9 0.0
18/07:00pm 22.5 23.9 21.0 91 1.0 NE 15 20 8 11 1004.7 1004.7 0.0
18/06:30pm 22.2 22.4 20.5 90 1.1 NNE 20 24 11 13 1004.1 1004.1 0.0
18/06:00pm 22.4 21.0 20.5 89 1.2 NE 28 32 15 17 1003.7 1003.7 0.0
18/05:30pm 22.8 22.2 20.5 87 1.5 NE 24 30 13 16 1003.7 1003.7 0.0
18/05:00pm 23.0 22.0 20.5 86 1.6 NE 26 32 14 17 1003.6 1003.6 0.0
18/04:30pm 23.4 23.1 20.3 83 2.0 NE 22 30 12 16 1004.2 1004.2 0.0
18/04:00pm 23.6 23.3 20.3 82 2.1 NE 22 26 12 14 1004.5 1004.5 0.0
18/03:30pm 23.8 24.1 20.7 83 2.0 NNE 20 22 11 12 1005.1 1005.1 0.0
18/03:00pm 23.8 24.4 20.3 81 2.3 NE 17 20 9 11 1005.9 1005.9 0.0
18/02:30pm 23.5 23.5 19.8 80 2.4 NE 19 22 10 12 1006.2 1006.2 0.0
18/02:00pm 24.6 26.4 20.3 77 2.8 ENE 11 15 6 8 1006.2 1006.2 0.0
18/01:30pm 24.7 25.7 20.2 76 2.9 ENE 15 20 8 11 1006.7 1006.7 0.0
18/01:00pm 24.2 25.2 19.5 75 3.0 E 13 15 7 8 1007.1 1007.1 0.0
18/12:30pm 25.2 26.1 20.0 73 3.4 E 15 17 8 9 1007.2 1007.2 0.0
18/12:00pm 25.0 26.2 19.8 73 3.4 E 13 15 7 8 1007.5 1007.5 0.0
18/11:30am 23.6 25.3 19.3 77 2.7 E 9 13 5 7 1008.0 1008.0 0.0
18/11:00am 23.9 25.2 19.4 76 2.9 ESE 11 13 6 7 1008.1 1008.1 0.0
18/10:30am 23.2 24.5 19.4 79 2.4 ESE 11 15 6 8 1008.3 1008.3 0.0
18/10:00am 22.6 23.9 19.2 81 2.2 ESE 11 13 6 7 1008.7 1008.7 0.0
18/09:30am 22.2 23.4 19.0 82 2.0 ENE 11 15 6 8 1008.9 1008.9 0.0
18/09:00am 21.9 24.0 19.3 85 1.7 NE 7 11 4 6 1009.9 1009.8 0.0
18/08:30am 21.4 21.7 18.8 85 1.6 ENE 15 19 8 10 1009.7 1009.6 0.0
18/08:00am 21.1 20.8 18.3 84 1.7 E 17 19 9 10 1009.7 1009.6 0.0
18/07:30am 21.0 20.6 18.0 83 1.9 E 17 19 9 10 1009.6 1009.5 0.0
18/07:00am 20.9 20.0 17.7 82 2.0 ENE 19 22 10 12 1009.5 1009.4 0.0
18/06:30am 20.8 19.8 17.6 82 2.0 ENE 19 20 10 11 1008.8 1008.8 0.0
18/06:00am 20.7 20.1 17.5 82 2.0 ENE 17 19 9 10 1009.0 1009.0 0.0
18/05:30am 20.6 20.7 17.4 82 2.0 ENE 13 17 7 9 1008.8 1008.8 0.0
18/05:00am 20.6 20.3 17.4 82 2.0 ENE 15 17 8 9 1008.5 1008.5 0.0
18/04:30am 20.4 20.3 17.0 81 2.1 ENE 13 17 7 9 1008.0 1008.0 0.0
18/04:00am 20.6 21.2 16.8 79 2.3 ENE 9 9 5 5 1008.3 1008.3 0.0
18/03:30am 20.8 21.5 17.0 79 2.3 E 9 13 5 7 1008.7 1008.7 0.0
18/03:00am 20.7 21.5 16.3 76 2.7 E 7 11 4 6 1009.1 1009.1 0.0
18/02:30am 20.6 20.8 15.8 74 2.9 E 9 11 5 6 1009.6 1009.5 0.0
18/02:00am 20.6 21.2 15.4 72 3.1 E 6 9 3 5 1010.2 1010.1 0.0
18/01:30am 20.6 20.1 15.8 74 2.9 E 13 15 7 8 1010.0 1009.9 0.0
18/01:00am 20.7 21.0 16.1 75 2.8 E 9 13 5 7 1010.0 1009.9 0.0
18/12:30am 20.7 21.0 15.9 74 2.9 E 9 11 5 6 1010.5 1010.4 0.0
18/12:00am 20.7 20.9 15.7 73 3.0 ESE 9 11 5 6 1010.8 1010.7 0.0
 
Date/Time
EDT
Temp
°C
App
Temp
°C
Dew
Point
Rel
Hum
%
Delta-T
°C
Wind Press
QNH
hPa
Press
MSL
hPa
Rain
since 9 am
mm
Dir
 
Spd
km/h
Gust
km/h
Spd
kts
Gust
kts
17/11:30pm 20.7 20.8 15.5 72 3.1 ESE 9 9 5 5 1011.2 1011.1 0.0
17/11:00pm 20.5 19.0 15.3 72 3.1 SE 17 20 9 11 1010.9 1010.8 0.0
17/10:30pm 20.4 20.8 15.2 72 3.1 SSE 7 9 4 5 1011.1 1011.0 0.0
17/10:00pm 20.4 19.6 15.2 72 3.1 SE 13 15 7 8 1011.2 1011.1 0.0
17/09:30pm 20.3 18.3 14.9 71 3.2 SE 19 22 10 12 1010.6 1010.5 0.0
17/09:00pm 20.3 18.3 14.9 71 3.2 SE 19 22 10 12 1010.3 1010.2 0.0
17/08:30pm 20.3 18.6 14.7 70 3.3 SE 17 22 9 12 1010.5 1010.4 0.0
17/08:00pm 20.2 18.0 14.3 69 3.4 SE 19 20 10 11 1010.4 1010.3 0.0
17/07:30pm 20.3 18.5 14.4 69 3.4 SE 17 20 9 11 1010.1 1010.0 0.0
17/07:00pm 20.3 17.5 14.4 69 3.4 SE 22 28 12 15 1009.5 1009.4 0.0
17/06:30pm 20.3 17.1 14.2 68 3.5 SE 24 28 13 15 1008.5 1008.5 0.0
17/06:00pm 20.3 16.3 14.2 68 3.5 SSE 28 33 15 18 1008.1 1008.1 0.0
17/05:30pm 20.7 16.9 14.6 68 3.6 SSE 28 32 15 17 1007.8 1007.8 0.0
17/05:00pm 20.8 16.6 14.7 68 3.6 SSE 30 33 16 18 1007.5 1007.5 0.0

Other Formats:

Comma delimited format used in spreadsheet applications
http://www.bom.gov.au/fwo/IDN60801/IDN60801.95770.axf

JavaScript Object Notation format (JSON) in row-major order
http://www.bom.gov.au/fwo/IDN60801/IDN60801.95770.json